sensor_id;sensor_type;location;lat;lon;timestamp;P1;durP1;ratioP1;P2;durP2;ratioP2
59052;SDS011;44843;44.728;10.396;2023-09-19T00:01:32;14.98;;;3.60;;
59052;SDS011;44843;44.728;10.396;2023-09-19T00:03:58;10.02;;;4.05;;
59052;SDS011;44843;44.728;10.396;2023-09-19T00:06:24;13.57;;;3.50;;
59052;SDS011;44843;44.728;10.396;2023-09-19T00:08:54;18.92;;;3.58;;
59052;SDS011;44843;44.728;10.396;2023-09-19T00:11:19;8.95;;;2.97;;
59052;SDS011;44843;44.728;10.396;2023-09-19T00:13:47;17.40;;;4.30;;
59052;SDS011;44843;44.728;10.396;2023-09-19T00:16:15;17.00;;;4.43;;
59052;SDS011;44843;44.728;10.396;2023-09-19T00:18:40;11.73;;;5.07;;
59052;SDS011;44843;44.728;10.396;2023-09-19T00:21:06;9.90;;;3.97;;
59052;SDS011;44843;44.728;10.396;2023-09-19T00:23:32;13.68;;;4.72;;
59052;SDS011;44843;44.728;10.396;2023-09-19T00:25:58;13.15;;;3.90;;
59052;SDS011;44843;44.728;10.396;2023-09-19T00:28:24;12.40;;;4.45;;
59052;SDS011;44843;44.728;10.396;2023-09-19T00:30:50;16.20;;;4.28;;
59052;SDS011;44843;44.728;10.396;2023-09-19T00:33:15;9.65;;;4.82;;
59052;SDS011;44843;44.728;10.396;2023-09-19T00:35:51;10.10;;;4.72;;
59052;SDS011;44843;44.728;10.396;2023-09-19T00:38:17;13.55;;;4.10;;
59052;SDS011;44843;44.728;10.396;2023-09-19T00:40:46;13.75;;;4.05;;
59052;SDS011;44843;44.728;10.396;2023-09-19T00:43:12;15.50;;;4.63;;
59052;SDS011;44843;44.728;10.396;2023-09-19T00:45:37;13.63;;;4.72;;
59052;SDS011;44843;44.728;10.396;2023-09-19T00:48:04;19.58;;;4.72;;
59052;SDS011;44843;44.728;10.396;2023-09-19T00:50:34;8.88;;;3.47;;
59052;SDS011;44843;44.728;10.396;2023-09-19T00:53:00;12.27;;;4.35;;
59052;SDS011;44843;44.728;10.396;2023-09-19T00:55:26;11.50;;;4.20;;
59052;SDS011;44843;44.728;10.396;2023-09-19T00:57:55;12.15;;;3.60;;
59052;SDS011;44843;44.728;10.396;2023-09-19T01:00:21;9.82;;;3.53;;
59052;SDS011;44843;44.728;10.396;2023-09-19T01:10:11;10.65;;;3.60;;
59052;SDS011;44843;44.728;10.396;2023-09-19T01:17:54;13.10;;;3.58;;
59052;SDS011;44843;44.728;10.396;2023-09-19T01:23:23;13.13;;;5.32;;
59052;SDS011;44843;44.728;10.396;2023-09-19T01:26:27;10.25;;;3.45;;
59052;SDS011;44843;44.728;10.396;2023-09-19T01:29:26;12.07;;;4.60;;
59052;SDS011;44843;44.728;10.396;2023-09-19T01:34:48;8.93;;;4.30;;
59052;SDS011;44843;44.728;10.396;2023-09-19T01:37:18;16.30;;;5.68;;
59052;SDS011;44843;44.728;10.396;2023-09-19T01:39:46;13.60;;;4.57;;
59052;SDS011;44843;44.728;10.396;2023-09-19T01:43:00;12.85;;;4.50;;
59052;SDS011;44843;44.728;10.396;2023-09-19T01:47:49;14.75;;;4.57;;
59052;SDS011;44843;44.728;10.396;2023-09-19T01:50:33;13.85;;;4.47;;
59052;SDS011;44843;44.728;10.396;2023-09-19T01:53:07;12.27;;;4.80;;
59052;SDS011;44843;44.728;10.396;2023-09-19T01:55:45;14.30;;;4.20;;
59052;SDS011;44843;44.728;10.396;2023-09-19T02:01:00;15.38;;;3.90;;
59052;SDS011;44843;44.728;10.396;2023-09-19T02:03:28;13.82;;;4.28;;
59052;SDS011;44843;44.728;10.396;2023-09-19T02:05:55;13.82;;;4.30;;
59052;SDS011;44843;44.728;10.396;2023-09-19T02:08:22;9.15;;;3.95;;
59052;SDS011;44843;44.728;10.396;2023-09-19T02:10:49;11.98;;;4.22;;
59052;SDS011;44843;44.728;10.396;2023-09-19T02:13:17;14.77;;;3.78;;
59052;SDS011;44843;44.728;10.396;2023-09-19T02:15:46;12.18;;;4.15;;
59052;SDS011;44843;44.728;10.396;2023-09-19T02:18:12;13.75;;;3.88;;
59052;SDS011;44843;44.728;10.396;2023-09-19T02:20:39;11.48;;;3.72;;
59052;SDS011;44843;44.728;10.396;2023-09-19T02:23:04;12.80;;;4.13;;
59052;SDS011;44843;44.728;10.396;2023-09-19T02:25:30;17.70;;;4.50;;
59052;SDS011;44843;44.728;10.396;2023-09-19T02:27:57;11.10;;;4.50;;
59052;SDS011;44843;44.728;10.396;2023-09-19T02:30:24;15.18;;;4.43;;
59052;SDS011;44843;44.728;10.396;2023-09-19T02:32:53;11.35;;;4.25;;
59052;SDS011;44843;44.728;10.396;2023-09-19T02:35:18;10.48;;;4.63;;
59052;SDS011;44843;44.728;10.396;2023-09-19T02:37:47;12.82;;;4.47;;
59052;SDS011;44843;44.728;10.396;2023-09-19T02:40:13;19.05;;;5.25;;
59052;SDS011;44843;44.728;10.396;2023-09-19T02:42:46;9.02;;;4.75;;
59052;SDS011;44843;44.728;10.396;2023-09-19T02:47:42;12.93;;;5.28;;
59052;SDS011;44843;44.728;10.396;2023-09-19T02:50:08;16.98;;;4.40;;
59052;SDS011;44843;44.728;10.396;2023-09-19T02:52:36;16.98;;;4.75;;
59052;SDS011;44843;44.728;10.396;2023-09-19T02:55:02;12.02;;;4.35;;
59052;SDS011;44843;44.728;10.396;2023-09-19T02:57:30;16.25;;;5.38;;
59052;SDS011;44843;44.728;10.396;2023-09-19T02:59:59;10.73;;;4.35;;
59052;SDS011;44843;44.728;10.396;2023-09-19T03:02:26;16.63;;;5.35;;
59052;SDS011;44843;44.728;10.396;2023-09-19T03:04:52;11.75;;;6.00;;
59052;SDS011;44843;44.728;10.396;2023-09-19T03:07:18;15.30;;;6.03;;
59052;SDS011;44843;44.728;10.396;2023-09-19T03:09:43;12.20;;;5.18;;
59052;SDS011;44843;44.728;10.396;2023-09-19T03:12:10;16.67;;;4.85;;
59052;SDS011;44843;44.728;10.396;2023-09-19T03:14:35;12.40;;;4.80;;
59052;SDS011;44843;44.728;10.396;2023-09-19T03:17:01;14.15;;;5.65;;
59052;SDS011;44843;44.728;10.396;2023-09-19T03:19:29;14.25;;;4.95;;
59052;SDS011;44843;44.728;10.396;2023-09-19T03:21:55;18.25;;;6.32;;
59052;SDS011;44843;44.728;10.396;2023-09-19T03:24:22;14.55;;;5.35;;
59052;SDS011;44843;44.728;10.396;2023-09-19T03:26:48;15.18;;;5.13;;
59052;SDS011;44843;44.728;10.396;2023-09-19T03:29:14;12.65;;;5.75;;
59052;SDS011;44843;44.728;10.396;2023-09-19T03:31:40;15.98;;;5.78;;
59052;SDS011;44843;44.728;10.396;2023-09-19T03:34:06;15.07;;;5.70;;
59052;SDS011;44843;44.728;10.396;2023-09-19T03:36:31;13.50;;;5.13;;
59052;SDS011;44843;44.728;10.396;2023-09-19T03:38:59;15.20;;;5.78;;
59052;SDS011;44843;44.728;10.396;2023-09-19T03:41:24;12.73;;;5.25;;
59052;SDS011;44843;44.728;10.396;2023-09-19T03:43:50;16.95;;;5.88;;
59052;SDS011;44843;44.728;10.396;2023-09-19T03:46:15;10.10;;;5.78;;
59052;SDS011;44843;44.728;10.396;2023-09-19T03:48:40;18.10;;;5.85;;
59052;SDS011;44843;44.728;10.396;2023-09-19T03:51:06;17.92;;;6.55;;
59052;SDS011;44843;44.728;10.396;2023-09-19T03:53:31;21.27;;;5.95;;
59052;SDS011;44843;44.728;10.396;2023-09-19T03:55:57;19.10;;;8.32;;
59052;SDS011;44843;44.728;10.396;2023-09-19T03:58:22;17.50;;;6.65;;
59052;SDS011;44843;44.728;10.396;2023-09-19T04:00:48;16.20;;;6.30;;
59052;SDS011;44843;44.728;10.396;2023-09-19T04:03:14;13.30;;;6.15;;
59052;SDS011;44843;44.728;10.396;2023-09-19T04:05:46;17.20;;;5.78;;
59052;SDS011;44843;44.728;10.396;2023-09-19T04:08:12;13.35;;;6.65;;
59052;SDS011;44843;44.728;10.396;2023-09-19T04:10:39;19.20;;;6.15;;
59052;SDS011;44843;44.728;10.396;2023-09-19T04:13:06;16.42;;;6.28;;
59052;SDS011;44843;44.728;10.396;2023-09-19T04:15:32;13.60;;;6.30;;
59052;SDS011;44843;44.728;10.396;2023-09-19T04:17:58;16.95;;;6.68;;
59052;SDS011;44843;44.728;10.396;2023-09-19T04:20:23;13.43;;;6.75;;
59052;SDS011;44843;44.728;10.396;2023-09-19T04:22:48;15.10;;;6.40;;
59052;SDS011;44843;44.728;10.396;2023-09-19T04:25:14;15.23;;;6.30;;
59052;SDS011;44843;44.728;10.396;2023-09-19T04:27:39;15.73;;;5.70;;
59052;SDS011;44843;44.728;10.396;2023-09-19T04:30:07;19.23;;;6.70;;
59052;SDS011;44843;44.728;10.396;2023-09-19T04:32:37;16.25;;;5.95;;
59052;SDS011;44843;44.728;10.396;2023-09-19T04:35:05;21.63;;;5.60;;
59052;SDS011;44843;44.728;10.396;2023-09-19T04:37:32;13.60;;;6.25;;
59052;SDS011;44843;44.728;10.396;2023-09-19T04:39:58;14.02;;;5.32;;
59052;SDS011;44843;44.728;10.396;2023-09-19T04:42:23;12.52;;;4.72;;
59052;SDS011;44843;44.728;10.396;2023-09-19T04:44:50;18.27;;;5.47;;
59052;SDS011;44843;44.728;10.396;2023-09-19T04:47:18;17.50;;;5.47;;
59052;SDS011;44843;44.728;10.396;2023-09-19T04:49:44;11.65;;;4.95;;
59052;SDS011;44843;44.728;10.396;2023-09-19T04:52:09;14.23;;;4.65;;
59052;SDS011;44843;44.728;10.396;2023-09-19T04:54:35;8.52;;;5.60;;
59052;SDS011;44843;44.728;10.396;2023-09-19T04:57:00;19.30;;;6.68;;
59052;SDS011;44843;44.728;10.396;2023-09-19T04:59:26;10.93;;;5.97;;
59052;SDS011;44843;44.728;10.396;2023-09-19T05:01:52;15.98;;;5.78;;
59052;SDS011;44843;44.728;10.396;2023-09-19T05:04:17;17.48;;;6.13;;
59052;SDS011;44843;44.728;10.396;2023-09-19T05:06:43;14.00;;;6.35;;
59052;SDS011;44843;44.728;10.396;2023-09-19T05:09:08;17.73;;;6.40;;
59052;SDS011;44843;44.728;10.396;2023-09-19T05:11:33;23.35;;;7.15;;
59052;SDS011;44843;44.728;10.396;2023-09-19T05:13:59;17.55;;;6.97;;
59052;SDS011;44843;44.728;10.396;2023-09-19T05:16:28;15.90;;;7.47;;
59052;SDS011;44843;44.728;10.396;2023-09-19T05:18:56;13.90;;;5.97;;
59052;SDS011;44843;44.728;10.396;2023-09-19T05:21:23;12.88;;;6.63;;
59052;SDS011;44843;44.728;10.396;2023-09-19T05:23:51;23.75;;;8.35;;
59052;SDS011;44843;44.728;10.396;2023-09-19T05:26:17;15.52;;;6.80;;
59052;SDS011;44843;44.728;10.396;2023-09-19T05:28:43;15.90;;;7.90;;
59052;SDS011;44843;44.728;10.396;2023-09-19T05:31:08;16.08;;;7.22;;
59052;SDS011;44843;44.728;10.396;2023-09-19T05:33:33;17.73;;;7.20;;
59052;SDS011;44843;44.728;10.396;2023-09-19T05:35:59;21.95;;;7.57;;
59052;SDS011;44843;44.728;10.396;2023-09-19T05:38:24;19.50;;;8.07;;
59052;SDS011;44843;44.728;10.396;2023-09-19T05:40:51;21.52;;;8.50;;
59052;SDS011;44843;44.728;10.396;2023-09-19T05:43:17;17.08;;;7.47;;
59052;SDS011;44843;44.728;10.396;2023-09-19T05:45:43;16.95;;;9.30;;
59052;SDS011;44843;44.728;10.396;2023-09-19T05:48:11;20.70;;;9.07;;
59052;SDS011;44843;44.728;10.396;2023-09-19T05:50:38;20.85;;;8.93;;
59052;SDS011;44843;44.728;10.396;2023-09-19T05:53:04;17.17;;;7.82;;
59052;SDS011;44843;44.728;10.396;2023-09-19T05:55:31;19.70;;;9.77;;
59052;SDS011;44843;44.728;10.396;2023-09-19T05:57:56;19.88;;;9.20;;
59052;SDS011;44843;44.728;10.396;2023-09-19T06:00:23;24.05;;;9.43;;
59052;SDS011;44843;44.728;10.396;2023-09-19T06:02:58;23.23;;;9.88;;
59052;SDS011;44843;44.728;10.396;2023-09-19T06:05:25;19.05;;;9.25;;
59052;SDS011;44843;44.728;10.396;2023-09-19T06:07:56;22.08;;;8.82;;
59052;SDS011;44843;44.728;10.396;2023-09-19T06:10:25;22.33;;;8.35;;
59052;SDS011;44843;44.728;10.396;2023-09-19T06:12:52;16.85;;;9.05;;
59052;SDS011;44843;44.728;10.396;2023-09-19T06:15:20;17.73;;;9.27;;
59052;SDS011;44843;44.728;10.396;2023-09-19T06:17:48;18.85;;;9.63;;
59052;SDS011;44843;44.728;10.396;2023-09-19T06:20:14;16.50;;;9.32;;
59052;SDS011;44843;44.728;10.396;2023-09-19T06:22:41;16.73;;;8.75;;
59052;SDS011;44843;44.728;10.396;2023-09-19T06:25:11;24.67;;;10.13;;
59052;SDS011;44843;44.728;10.396;2023-09-19T06:27:41;16.95;;;9.20;;
59052;SDS011;44843;44.728;10.396;2023-09-19T06:30:08;24.50;;;9.93;;
59052;SDS011;44843;44.728;10.396;2023-09-19T06:32:34;18.30;;;9.40;;
59052;SDS011;44843;44.728;10.396;2023-09-19T06:35:00;17.90;;;10.05;;
59052;SDS011;44843;44.728;10.396;2023-09-19T06:37:29;18.17;;;10.07;;
59052;SDS011;44843;44.728;10.396;2023-09-19T06:39:55;18.83;;;9.55;;
59052;SDS011;44843;44.728;10.396;2023-09-19T06:42:21;23.15;;;10.55;;
59052;SDS011;44843;44.728;10.396;2023-09-19T06:44:48;22.23;;;11.15;;
59052;SDS011;44843;44.728;10.396;2023-09-19T06:47:13;24.95;;;12.07;;
59052;SDS011;44843;44.728;10.396;2023-09-19T06:49:41;23.90;;;11.20;;
59052;SDS011;44843;44.728;10.396;2023-09-19T06:52:08;23.10;;;11.68;;
59052;SDS011;44843;44.728;10.396;2023-09-19T06:54:34;24.00;;;12.10;;
59052;SDS011;44843;44.728;10.396;2023-09-19T06:57:01;25.55;;;12.27;;
59052;SDS011;44843;44.728;10.396;2023-09-19T06:59:26;26.67;;;12.52;;
59052;SDS011;44843;44.728;10.396;2023-09-19T07:01:51;22.75;;;12.20;;
59052;SDS011;44843;44.728;10.396;2023-09-19T07:04:17;28.83;;;12.82;;
59052;SDS011;44843;44.728;10.396;2023-09-19T07:06:44;21.85;;;11.68;;
59052;SDS011;44843;44.728;10.396;2023-09-19T07:09:19;20.05;;;11.02;;
59052;SDS011;44843;44.728;10.396;2023-09-19T07:11:44;25.17;;;11.45;;
59052;SDS011;44843;44.728;10.396;2023-09-19T07:14:10;26.65;;;12.25;;
59052;SDS011;44843;44.728;10.396;2023-09-19T07:16:38;21.83;;;11.10;;
59052;SDS011;44843;44.728;10.396;2023-09-19T07:19:09;28.27;;;11.95;;
59052;SDS011;44843;44.728;10.396;2023-09-19T07:21:35;23.02;;;12.10;;
59052;SDS011;44843;44.728;10.396;2023-09-19T07:24:04;22.70;;;12.50;;
59052;SDS011;44843;44.728;10.396;2023-09-19T07:26:29;22.63;;;12.00;;
59052;SDS011;44843;44.728;10.396;2023-09-19T07:28:56;25.65;;;13.15;;
59052;SDS011;44843;44.728;10.396;2023-09-19T07:31:22;20.08;;;12.48;;
59052;SDS011;44843;44.728;10.396;2023-09-19T07:33:48;28.07;;;14.50;;
59052;SDS011;44843;44.728;10.396;2023-09-19T07:36:14;27.02;;;13.95;;
59052;SDS011;44843;44.728;10.396;2023-09-19T07:38:40;21.40;;;12.07;;
59052;SDS011;44843;44.728;10.396;2023-09-19T07:41:06;23.48;;;12.50;;
59052;SDS011;44843;44.728;10.396;2023-09-19T07:43:34;26.08;;;13.05;;
59052;SDS011;44843;44.728;10.396;2023-09-19T07:46:07;28.05;;;14.35;;
59052;SDS011;44843;44.728;10.396;2023-09-19T07:51:06;29.13;;;13.65;;
59052;SDS011;44843;44.728;10.396;2023-09-19T07:53:33;25.00;;;12.63;;
59052;SDS011;44843;44.728;10.396;2023-09-19T07:56:06;23.65;;;13.00;;
59052;SDS011;44843;44.728;10.396;2023-09-19T07:58:33;30.65;;;12.52;;
59052;SDS011;44843;44.728;10.396;2023-09-19T08:01:02;25.13;;;13.60;;
59052;SDS011;44843;44.728;10.396;2023-09-19T08:03:29;23.63;;;12.20;;
59052;SDS011;44843;44.728;10.396;2023-09-19T08:05:55;27.25;;;13.35;;
59052;SDS011;44843;44.728;10.396;2023-09-19T08:08:22;24.88;;;12.73;;
59052;SDS011;44843;44.728;10.396;2023-09-19T08:10:52;23.15;;;12.45;;
59052;SDS011;44843;44.728;10.396;2023-09-19T08:13:18;28.08;;;12.85;;
59052;SDS011;44843;44.728;10.396;2023-09-19T08:15:44;21.67;;;12.10;;
59052;SDS011;44843;44.728;10.396;2023-09-19T08:18:10;25.05;;;11.60;;
59052;SDS011;44843;44.728;10.396;2023-09-19T08:20:37;27.30;;;12.70;;
59052;SDS011;44843;44.728;10.396;2023-09-19T08:23:03;26.10;;;14.07;;
59052;SDS011;44843;44.728;10.396;2023-09-19T08:25:28;23.63;;;12.05;;
59052;SDS011;44843;44.728;10.396;2023-09-19T08:27:54;25.67;;;13.85;;
59052;SDS011;44843;44.728;10.396;2023-09-19T08:30:23;22.55;;;12.90;;
59052;SDS011;44843;44.728;10.396;2023-09-19T08:32:56;25.90;;;11.55;;
59052;SDS011;44843;44.728;10.396;2023-09-19T08:35:23;25.27;;;11.75;;
59052;SDS011;44843;44.728;10.396;2023-09-19T08:37:49;24.08;;;13.35;;
59052;SDS011;44843;44.728;10.396;2023-09-19T08:40:14;20.88;;;10.45;;
59052;SDS011;44843;44.728;10.396;2023-09-19T08:42:53;25.27;;;13.13;;
59052;SDS011;44843;44.728;10.396;2023-09-19T08:45:20;21.65;;;11.10;;
59052;SDS011;44843;44.728;10.396;2023-09-19T08:50:43;21.17;;;10.70;;
59052;SDS011;44843;44.728;10.396;2023-09-19T08:56:14;22.63;;;10.63;;
59052;SDS011;44843;44.728;10.396;2023-09-19T09:01:16;24.08;;;12.40;;
59052;SDS011;44843;44.728;10.396;2023-09-19T09:06:15;20.48;;;9.35;;
59052;SDS011;44843;44.728;10.396;2023-09-19T09:08:43;21.38;;;10.20;;
59052;SDS011;44843;44.728;10.396;2023-09-19T09:11:09;16.20;;;8.23;;
59052;SDS011;44843;44.728;10.396;2023-09-19T09:13:36;19.13;;;9.07;;
59052;SDS011;44843;44.728;10.396;2023-09-19T09:16:02;20.23;;;10.02;;
59052;SDS011;44843;44.728;10.396;2023-09-19T09:18:28;23.52;;;10.48;;
59052;SDS011;44843;44.728;10.396;2023-09-19T09:23:22;23.02;;;9.70;;
59052;SDS011;44843;44.728;10.396;2023-09-19T09:28:22;26.73;;;12.60;;
59052;SDS011;44843;44.728;10.396;2023-09-19T09:30:49;21.92;;;11.00;;
59052;SDS011;44843;44.728;10.396;2023-09-19T09:33:15;20.70;;;12.15;;
59052;SDS011;44843;44.728;10.396;2023-09-19T09:35:47;20.13;;;10.98;;
59052;SDS011;44843;44.728;10.396;2023-09-19T09:38:20;17.63;;;9.18;;
59052;SDS011;44843;44.728;10.396;2023-09-19T09:40:51;18.17;;;10.07;;
59052;SDS011;44843;44.728;10.396;2023-09-19T09:43:26;19.20;;;9.25;;
59052;SDS011;44843;44.728;10.396;2023-09-19T09:46:09;23.70;;;10.13;;
59052;SDS011;44843;44.728;10.396;2023-09-19T09:48:47;19.95;;;10.35;;
59052;SDS011;44843;44.728;10.396;2023-09-19T09:51:39;27.35;;;12.77;;
59052;SDS011;44843;44.728;10.396;2023-09-19T09:54:17;22.65;;;11.45;;
59052;SDS011;44843;44.728;10.396;2023-09-19T09:59:19;22.13;;;10.57;;
59052;SDS011;44843;44.728;10.396;2023-09-19T10:01:49;23.15;;;12.15;;
59052;SDS011;44843;44.728;10.396;2023-09-19T10:04:36;25.25;;;12.05;;
59052;SDS011;44843;44.728;10.396;2023-09-19T10:07:26;27.73;;;13.73;;
59052;SDS011;44843;44.728;10.396;2023-09-19T10:10:01;23.90;;;11.40;;
59052;SDS011;44843;44.728;10.396;2023-09-19T10:12:36;18.95;;;9.70;;
59052;SDS011;44843;44.728;10.396;2023-09-19T10:15:06;21.50;;;9.30;;
59052;SDS011;44843;44.728;10.396;2023-09-19T10:17:33;17.90;;;10.18;;
59052;SDS011;44843;44.728;10.396;2023-09-19T10:20:01;18.95;;;11.30;;
59052;SDS011;44843;44.728;10.396;2023-09-19T10:22:34;21.38;;;11.98;;
59052;SDS011;44843;44.728;10.396;2023-09-19T10:25:02;25.40;;;13.50;;
59052;SDS011;44843;44.728;10.396;2023-09-19T10:27:32;25.60;;;13.00;;
59052;SDS011;44843;44.728;10.396;2023-09-19T10:30:02;23.42;;;11.45;;
59052;SDS011;44843;44.728;10.396;2023-09-19T10:32:32;21.02;;;11.23;;
59052;SDS011;44843;44.728;10.396;2023-09-19T10:34:59;22.77;;;11.85;;
59052;SDS011;44843;44.728;10.396;2023-09-19T10:37:27;24.05;;;13.40;;
59052;SDS011;44843;44.728;10.396;2023-09-19T10:39:55;21.05;;;12.00;;
59052;SDS011;44843;44.728;10.396;2023-09-19T10:42:21;22.48;;;11.32;;
59052;SDS011;44843;44.728;10.396;2023-09-19T10:44:50;26.38;;;12.52;;
59052;SDS011;44843;44.728;10.396;2023-09-19T10:47:20;22.83;;;13.35;;
59052;SDS011;44843;44.728;10.396;2023-09-19T10:49:49;25.30;;;14.43;;
59052;SDS011;44843;44.728;10.396;2023-09-19T10:52:15;24.23;;;11.73;;
59052;SDS011;44843;44.728;10.396;2023-09-19T10:54:46;25.90;;;12.38;;
59052;SDS011;44843;44.728;10.396;2023-09-19T10:57:22;29.80;;;12.63;;
59052;SDS011;44843;44.728;10.396;2023-09-19T11:00:05;31.40;;;13.00;;
59052;SDS011;44843;44.728;10.396;2023-09-19T11:05:45;26.58;;;13.27;;
59052;SDS011;44843;44.728;10.396;2023-09-19T11:08:26;23.00;;;12.52;;
59052;SDS011;44843;44.728;10.396;2023-09-19T11:10:52;23.70;;;13.18;;
59052;SDS011;44843;44.728;10.396;2023-09-19T11:13:27;28.25;;;13.63;;
59052;SDS011;44843;44.728;10.396;2023-09-19T11:21:38;26.17;;;13.35;;
59052;SDS011;44843;44.728;10.396;2023-09-19T11:26:44;18.30;;;11.68;;
59052;SDS011;44843;44.728;10.396;2023-09-19T11:29:25;29.02;;;12.85;;
59052;SDS011;44843;44.728;10.396;2023-09-19T11:31:51;29.90;;;13.57;;
59052;SDS011;44843;44.728;10.396;2023-09-19T11:37:01;21.70;;;11.95;;
59052;SDS011;44843;44.728;10.396;2023-09-19T11:39:31;20.30;;;12.20;;
59052;SDS011;44843;44.728;10.396;2023-09-19T11:41:58;25.33;;;12.00;;
59052;SDS011;44843;44.728;10.396;2023-09-19T11:46:52;27.45;;;10.55;;
59052;SDS011;44843;44.728;10.396;2023-09-19T11:49:23;19.77;;;10.93;;
59052;SDS011;44843;44.728;10.396;2023-09-19T11:51:54;21.50;;;10.82;;
59052;SDS011;44843;44.728;10.396;2023-09-19T11:54:20;20.52;;;10.95;;
59052;SDS011;44843;44.728;10.396;2023-09-19T11:56:56;16.85;;;9.23;;
59052;SDS011;44843;44.728;10.396;2023-09-19T11:59:23;20.52;;;10.57;;
59052;SDS011;44843;44.728;10.396;2023-09-19T12:01:53;18.83;;;10.05;;
59052;SDS011;44843;44.728;10.396;2023-09-19T12:07:09;15.45;;;9.18;;
59052;SDS011;44843;44.728;10.396;2023-09-19T12:09:50;22.20;;;8.55;;
59052;SDS011;44843;44.728;10.396;2023-09-19T12:12:28;22.75;;;9.50;;
59052;SDS011;44843;44.728;10.396;2023-09-19T12:14:55;17.65;;;8.40;;
59052;SDS011;44843;44.728;10.396;2023-09-19T12:17:24;15.20;;;8.00;;
59052;SDS011;44843;44.728;10.396;2023-09-19T12:20:01;15.32;;;8.70;;
59052;SDS011;44843;44.728;10.396;2023-09-19T12:22:44;17.52;;;7.65;;
59052;SDS011;44843;44.728;10.396;2023-09-19T12:25:11;15.93;;;7.05;;
59052;SDS011;44843;44.728;10.396;2023-09-19T12:27:45;17.70;;;8.82;;
59052;SDS011;44843;44.728;10.396;2023-09-19T12:30:13;18.33;;;8.55;;
59052;SDS011;44843;44.728;10.396;2023-09-19T12:32:47;17.88;;;8.65;;
59052;SDS011;44843;44.728;10.396;2023-09-19T12:40:53;13.20;;;7.53;;
59052;SDS011;44843;44.728;10.396;2023-09-19T12:43:23;12.27;;;7.20;;
59052;SDS011;44843;44.728;10.396;2023-09-19T12:45:49;12.35;;;6.65;;
59052;SDS011;44843;44.728;10.396;2023-09-19T12:48:25;13.45;;;7.05;;
59052;SDS011;44843;44.728;10.396;2023-09-19T12:50:59;21.30;;;7.85;;
59052;SDS011;44843;44.728;10.396;2023-09-19T12:53:36;16.25;;;7.25;;
59052;SDS011;44843;44.728;10.396;2023-09-19T12:56:05;12.43;;;6.85;;
59052;SDS011;44843;44.728;10.396;2023-09-19T12:58:33;12.07;;;6.35;;
59052;SDS011;44843;44.728;10.396;2023-09-19T13:01:00;14.07;;;6.53;;
59052;SDS011;44843;44.728;10.396;2023-09-19T13:03:27;9.65;;;6.45;;
59052;SDS011;44843;44.728;10.396;2023-09-19T13:06:02;16.70;;;7.10;;
59052;SDS011;44843;44.728;10.396;2023-09-19T13:08:34;14.02;;;6.13;;
59052;SDS011;44843;44.728;10.396;2023-09-19T13:11:07;13.38;;;6.72;;
59052;SDS011;44843;44.728;10.396;2023-09-19T13:13:46;13.05;;;7.20;;
59052;SDS011;44843;44.728;10.396;2023-09-19T13:16:21;12.18;;;6.78;;
59052;SDS011;44843;44.728;10.396;2023-09-19T13:21:26;14.38;;;7.15;;
59052;SDS011;44843;44.728;10.396;2023-09-19T13:26:46;12.57;;;7.03;;
59052;SDS011;44843;44.728;10.396;2023-09-19T13:29:11;12.07;;;6.10;;
59052;SDS011;44843;44.728;10.396;2023-09-19T13:31:37;16.83;;;6.65;;
59052;SDS011;44843;44.728;10.396;2023-09-19T13:34:06;12.35;;;6.15;;
59052;SDS011;44843;44.728;10.396;2023-09-19T13:36:32;14.75;;;6.63;;
59052;SDS011;44843;44.728;10.396;2023-09-19T13:38:58;9.27;;;4.90;;
59052;SDS011;44843;44.728;10.396;2023-09-19T13:41:25;13.15;;;6.60;;
59052;SDS011;44843;44.728;10.396;2023-09-19T13:43:51;14.32;;;6.28;;
59052;SDS011;44843;44.728;10.396;2023-09-19T13:46:16;12.88;;;6.55;;
59052;SDS011;44843;44.728;10.396;2023-09-19T13:48:42;14.02;;;7.90;;
59052;SDS011;44843;44.728;10.396;2023-09-19T13:51:08;15.68;;;6.18;;
59052;SDS011;44843;44.728;10.396;2023-09-19T13:53:33;11.02;;;6.15;;
59052;SDS011;44843;44.728;10.396;2023-09-19T13:55:59;12.45;;;6.65;;
59052;SDS011;44843;44.728;10.396;2023-09-19T13:58:24;16.10;;;6.13;;
59052;SDS011;44843;44.728;10.396;2023-09-19T14:00:50;18.35;;;6.57;;
59052;SDS011;44843;44.728;10.396;2023-09-19T14:03:15;12.30;;;5.50;;
59052;SDS011;44843;44.728;10.396;2023-09-19T14:05:41;10.10;;;7.05;;
59052;SDS011;44843;44.728;10.396;2023-09-19T14:08:07;11.80;;;6.13;;
59052;SDS011;44843;44.728;10.396;2023-09-19T14:10:33;14.60;;;5.97;;
59052;SDS011;44843;44.728;10.396;2023-09-19T14:12:59;10.80;;;5.88;;
59052;SDS011;44843;44.728;10.396;2023-09-19T14:15:26;10.30;;;5.38;;
59052;SDS011;44843;44.728;10.396;2023-09-19T14:17:58;15.77;;;9.55;;
59052;SDS011;44843;44.728;10.396;2023-09-19T14:20:25;10.10;;;5.75;;
59052;SDS011;44843;44.728;10.396;2023-09-19T14:22:52;11.20;;;5.55;;
59052;SDS011;44843;44.728;10.396;2023-09-19T14:25:18;9.18;;;4.88;;
59052;SDS011;44843;44.728;10.396;2023-09-19T14:27:43;11.27;;;5.90;;
59052;SDS011;44843;44.728;10.396;2023-09-19T14:30:09;12.55;;;6.63;;
59052;SDS011;44843;44.728;10.396;2023-09-19T14:32:35;10.75;;;4.70;;
59052;SDS011;44843;44.728;10.396;2023-09-19T14:35:01;7.78;;;4.80;;
59052;SDS011;44843;44.728;10.396;2023-09-19T14:37:27;12.27;;;5.05;;
59052;SDS011;44843;44.728;10.396;2023-09-19T14:39:53;5.40;;;2.42;;
59052;SDS011;44843;44.728;10.396;2023-09-19T14:42:19;8.45;;;3.08;;
59052;SDS011;44843;44.728;10.396;2023-09-19T14:44:45;6.88;;;3.05;;
59052;SDS011;44843;44.728;10.396;2023-09-19T14:47:12;6.40;;;3.25;;
59052;SDS011;44843;44.728;10.396;2023-09-19T14:49:38;5.70;;;3.08;;
59052;SDS011;44843;44.728;10.396;2023-09-19T14:52:05;7.32;;;2.08;;
59052;SDS011;44843;44.728;10.396;2023-09-19T14:54:34;3.13;;;1.80;;
59052;SDS011;44843;44.728;10.396;2023-09-19T14:57:00;2.90;;;1.67;;
59052;SDS011;44843;44.728;10.396;2023-09-19T14:59:33;4.07;;;1.65;;
59052;SDS011;44843;44.728;10.396;2023-09-19T15:02:02;3.72;;;1.35;;
59052;SDS011;44843;44.728;10.396;2023-09-19T15:04:29;4.30;;;1.65;;
59052;SDS011;44843;44.728;10.396;2023-09-19T15:06:54;1.70;;;1.10;;
59052;SDS011;44843;44.728;10.396;2023-09-19T15:09:23;3.08;;;1.30;;
59052;SDS011;44843;44.728;10.396;2023-09-19T15:11:51;4.63;;;1.20;;
59052;SDS011;44843;44.728;10.396;2023-09-19T15:14:17;3.20;;;1.67;;
59052;SDS011;44843;44.728;10.396;2023-09-19T15:16:43;3.63;;;1.20;;
59052;SDS011;44843;44.728;10.396;2023-09-19T15:19:08;4.88;;;1.70;;
59052;SDS011;44843;44.728;10.396;2023-09-19T15:21:35;3.42;;;1.30;;
59052;SDS011;44843;44.728;10.396;2023-09-19T15:24:02;4.00;;;1.60;;
59052;SDS011;44843;44.728;10.396;2023-09-19T15:26:28;4.45;;;1.83;;
59052;SDS011;44843;44.728;10.396;2023-09-19T15:28:55;2.95;;;1.13;;
59052;SDS011;44843;44.728;10.396;2023-09-19T15:31:20;3.17;;;1.52;;
59052;SDS011;44843;44.728;10.396;2023-09-19T15:33:46;3.20;;;1.10;;
59052;SDS011;44843;44.728;10.396;2023-09-19T15:36:12;2.55;;;1.58;;
59052;SDS011;44843;44.728;10.396;2023-09-19T15:38:58;4.93;;;1.73;;
59052;SDS011;44843;44.728;10.396;2023-09-19T15:41:39;4.95;;;1.30;;
59052;SDS011;44843;44.728;10.396;2023-09-19T15:44:12;2.60;;;1.45;;